sensor_id;sensor_type;location;lat;lon;timestamp;P1;durP1;ratioP1;P2;durP2;ratioP2
10910;SDS011;5508;49.150;11.030;2024-02-26T00:02:21;10.27;;;7.93;;
10910;SDS011;5508;49.150;11.030;2024-02-26T00:05:22;9.83;;;7.43;;
10910;SDS011;5508;49.150;11.030;2024-02-26T00:08:22;13.30;;;8.13;;
10910;SDS011;5508;49.150;11.030;2024-02-26T00:11:23;14.63;;;7.50;;
10910;SDS011;5508;49.150;11.030;2024-02-26T00:14:24;9.30;;;6.60;;
10910;SDS011;5508;49.150;11.030;2024-02-26T00:17:24;11.07;;;7.17;;
10910;SDS011;5508;49.150;11.030;2024-02-26T00:20:25;9.03;;;6.33;;
10910;SDS011;5508;49.150;11.030;2024-02-26T00:23:26;8.20;;;5.80;;
10910;SDS011;5508;49.150;11.030;2024-02-26T00:26:27;7.07;;;5.67;;
10910;SDS011;5508;49.150;11.030;2024-02-26T00:29:28;9.43;;;6.30;;
10910;SDS011;5508;49.150;11.030;2024-02-26T00:32:28;8.67;;;6.40;;
10910;SDS011;5508;49.150;11.030;2024-02-26T00:35:29;9.30;;;6.27;;
10910;SDS011;5508;49.150;11.030;2024-02-26T00:38:29;10.10;;;7.60;;
10910;SDS011;5508;49.150;11.030;2024-02-26T00:41:30;8.57;;;5.67;;
10910;SDS011;5508;49.150;11.030;2024-02-26T00:44:31;9.60;;;5.93;;
10910;SDS011;5508;49.150;11.030;2024-02-26T00:47:32;8.87;;;6.07;;
10910;SDS011;5508;49.150;11.030;2024-02-26T00:50:32;7.80;;;5.77;;
10910;SDS011;5508;49.150;11.030;2024-02-26T00:53:36;9.33;;;5.60;;
10910;SDS011;5508;49.150;11.030;2024-02-26T00:56:36;11.30;;;6.10;;
10910;SDS011;5508;49.150;11.030;2024-02-26T00:59:37;7.30;;;5.20;;
10910;SDS011;5508;49.150;11.030;2024-02-26T01:02:37;7.50;;;5.80;;
10910;SDS011;5508;49.150;11.030;2024-02-26T01:05:38;6.57;;;5.53;;
10910;SDS011;5508;49.150;11.030;2024-02-26T01:08:39;7.47;;;5.80;;
10910;SDS011;5508;49.150;11.030;2024-02-26T01:11:39;8.53;;;6.10;;
10910;SDS011;5508;49.150;11.030;2024-02-26T01:14:40;9.80;;;6.67;;
10910;SDS011;5508;49.150;11.030;2024-02-26T01:17:41;7.80;;;6.07;;
10910;SDS011;5508;49.150;11.030;2024-02-26T01:20:41;11.07;;;6.40;;
10910;SDS011;5508;49.150;11.030;2024-02-26T01:23:42;11.23;;;6.93;;
10910;SDS011;5508;49.150;11.030;2024-02-26T01:26:42;10.63;;;7.10;;
10910;SDS011;5508;49.150;11.030;2024-02-26T01:29:43;9.47;;;7.17;;
10910;SDS011;5508;49.150;11.030;2024-02-26T01:32:45;10.40;;;7.13;;
10910;SDS011;5508;49.150;11.030;2024-02-26T01:35:45;9.77;;;6.60;;
10910;SDS011;5508;49.150;11.030;2024-02-26T01:38:46;8.53;;;6.20;;
10910;SDS011;5508;49.150;11.030;2024-02-26T01:41:47;9.90;;;7.30;;
10910;SDS011;5508;49.150;11.030;2024-02-26T01:44:48;10.23;;;6.93;;
10910;SDS011;5508;49.150;11.030;2024-02-26T01:47:49;12.33;;;7.37;;
10910;SDS011;5508;49.150;11.030;2024-02-26T01:50:51;12.97;;;7.70;;
10910;SDS011;5508;49.150;11.030;2024-02-26T01:53:51;8.70;;;6.57;;
10910;SDS011;5508;49.150;11.030;2024-02-26T01:56:52;9.30;;;6.43;;
10910;SDS011;5508;49.150;11.030;2024-02-26T01:59:54;17.43;;;7.90;;
10910;SDS011;5508;49.150;11.030;2024-02-26T02:02:55;8.03;;;6.80;;
10910;SDS011;5508;49.150;11.030;2024-02-26T02:05:56;8.00;;;6.63;;
10910;SDS011;5508;49.150;11.030;2024-02-26T02:08:57;9.83;;;7.27;;
10910;SDS011;5508;49.150;11.030;2024-02-26T02:11:57;11.33;;;6.93;;
10910;SDS011;5508;49.150;11.030;2024-02-26T02:14:59;10.40;;;7.43;;
10910;SDS011;5508;49.150;11.030;2024-02-26T02:18:00;9.33;;;6.70;;
10910;SDS011;5508;49.150;11.030;2024-02-26T02:21:01;12.03;;;7.30;;
10910;SDS011;5508;49.150;11.030;2024-02-26T02:24:02;19.23;;;8.63;;
10910;SDS011;5508;49.150;11.030;2024-02-26T02:27:03;12.40;;;8.00;;
10910;SDS011;5508;49.150;11.030;2024-02-26T02:30:04;11.97;;;8.37;;
10910;SDS011;5508;49.150;11.030;2024-02-26T02:33:06;13.13;;;8.53;;
10910;SDS011;5508;49.150;11.030;2024-02-26T02:36:07;11.40;;;8.30;;
10910;SDS011;5508;49.150;11.030;2024-02-26T02:39:10;15.53;;;9.77;;
10910;SDS011;5508;49.150;11.030;2024-02-26T02:42:10;19.10;;;10.27;;
10910;SDS011;5508;49.150;11.030;2024-02-26T02:45:12;18.20;;;12.23;;
10910;SDS011;5508;49.150;11.030;2024-02-26T02:48:12;17.40;;;10.03;;
10910;SDS011;5508;49.150;11.030;2024-02-26T02:51:13;23.43;;;8.80;;
10910;SDS011;5508;49.150;11.030;2024-02-26T02:54:14;12.07;;;7.70;;
10910;SDS011;5508;49.150;11.030;2024-02-26T02:57:14;11.73;;;7.07;;
10910;SDS011;5508;49.150;11.030;2024-02-26T03:00:15;17.70;;;8.13;;
10910;SDS011;5508;49.150;11.030;2024-02-26T03:03:16;9.33;;;7.30;;
10910;SDS011;5508;49.150;11.030;2024-02-26T03:06:16;9.93;;;7.47;;
10910;SDS011;5508;49.150;11.030;2024-02-26T03:09:17;11.97;;;7.67;;
10910;SDS011;5508;49.150;11.030;2024-02-26T03:12:18;10.60;;;7.30;;
10910;SDS011;5508;49.150;11.030;2024-02-26T03:15:18;14.30;;;7.80;;
10910;SDS011;5508;49.150;11.030;2024-02-26T03:18:19;10.53;;;7.70;;
10910;SDS011;5508;49.150;11.030;2024-02-26T03:21:19;10.50;;;7.27;;
10910;SDS011;5508;49.150;11.030;2024-02-26T03:24:21;12.67;;;7.03;;
10910;SDS011;5508;49.150;11.030;2024-02-26T03:27:21;11.87;;;6.90;;
10910;SDS011;5508;49.150;11.030;2024-02-26T03:30:22;10.37;;;7.27;;
10910;SDS011;5508;49.150;11.030;2024-02-26T03:33:22;10.47;;;6.87;;
10910;SDS011;5508;49.150;11.030;2024-02-26T03:36:23;13.03;;;7.63;;
10910;SDS011;5508;49.150;11.030;2024-02-26T03:39:23;11.67;;;7.70;;
10910;SDS011;5508;49.150;11.030;2024-02-26T03:42:24;13.17;;;8.30;;
10910;SDS011;5508;49.150;11.030;2024-02-26T03:45:24;17.23;;;8.77;;
10910;SDS011;5508;49.150;11.030;2024-02-26T03:48:26;10.73;;;7.97;;
10910;SDS011;5508;49.150;11.030;2024-02-26T03:51:26;15.80;;;9.87;;
10910;SDS011;5508;49.150;11.030;2024-02-26T03:54:31;11.97;;;8.40;;
10910;SDS011;5508;49.150;11.030;2024-02-26T03:57:31;21.27;;;10.17;;
10910;SDS011;5508;49.150;11.030;2024-02-26T04:00:32;11.50;;;8.10;;
10910;SDS011;5508;49.150;11.030;2024-02-26T04:03:33;11.90;;;8.43;;
10910;SDS011;5508;49.150;11.030;2024-02-26T04:06:34;13.80;;;8.87;;
10910;SDS011;5508;49.150;11.030;2024-02-26T04:09:34;11.80;;;7.63;;
10910;SDS011;5508;49.150;11.030;2024-02-26T04:12:35;10.73;;;8.37;;
10910;SDS011;5508;49.150;11.030;2024-02-26T04:15:37;10.67;;;7.40;;
10910;SDS011;5508;49.150;11.030;2024-02-26T04:18:38;13.00;;;7.87;;
10910;SDS011;5508;49.150;11.030;2024-02-26T04:21:40;13.17;;;9.10;;
10910;SDS011;5508;49.150;11.030;2024-02-26T04:24:41;17.37;;;11.10;;
10910;SDS011;5508;49.150;11.030;2024-02-26T04:27:42;17.57;;;9.60;;
10910;SDS011;5508;49.150;11.030;2024-02-26T04:30:42;13.03;;;8.67;;
10910;SDS011;5508;49.150;11.030;2024-02-26T04:33:43;11.67;;;8.33;;
10910;SDS011;5508;49.150;11.030;2024-02-26T04:36:43;12.47;;;8.47;;
10910;SDS011;5508;49.150;11.030;2024-02-26T04:39:44;12.07;;;8.33;;
10910;SDS011;5508;49.150;11.030;2024-02-26T04:42:45;13.20;;;8.47;;
10910;SDS011;5508;49.150;11.030;2024-02-26T04:45:46;17.57;;;8.20;;
10910;SDS011;5508;49.150;11.030;2024-02-26T04:48:47;13.60;;;8.73;;
10910;SDS011;5508;49.150;11.030;2024-02-26T04:51:47;16.63;;;9.60;;
10910;SDS011;5508;49.150;11.030;2024-02-26T04:54:48;18.50;;;9.30;;
10910;SDS011;5508;49.150;11.030;2024-02-26T04:57:48;17.40;;;9.33;;
10910;SDS011;5508;49.150;11.030;2024-02-26T05:00:49;14.60;;;9.83;;
10910;SDS011;5508;49.150;11.030;2024-02-26T05:03:50;14.20;;;9.77;;
10910;SDS011;5508;49.150;11.030;2024-02-26T05:06:50;16.33;;;10.10;;
10910;SDS011;5508;49.150;11.030;2024-02-26T05:09:51;25.10;;;10.43;;
10910;SDS011;5508;49.150;11.030;2024-02-26T05:12:52;15.83;;;9.87;;
10910;SDS011;5508;49.150;11.030;2024-02-26T05:15:52;14.67;;;8.87;;
10910;SDS011;5508;49.150;11.030;2024-02-26T05:18:53;16.40;;;9.97;;
10910;SDS011;5508;49.150;11.030;2024-02-26T05:21:54;14.97;;;10.33;;
10910;SDS011;5508;49.150;11.030;2024-02-26T05:24:54;16.33;;;10.77;;
10910;SDS011;5508;49.150;11.030;2024-02-26T05:27:55;19.50;;;12.27;;
10910;SDS011;5508;49.150;11.030;2024-02-26T05:30:55;16.07;;;11.27;;
10910;SDS011;5508;49.150;11.030;2024-02-26T05:33:56;17.57;;;10.67;;
10910;SDS011;5508;49.150;11.030;2024-02-26T05:36:57;17.60;;;11.03;;
10910;SDS011;5508;49.150;11.030;2024-02-26T05:39:57;16.57;;;11.73;;
10910;SDS011;5508;49.150;11.030;2024-02-26T05:42:59;20.70;;;14.00;;
10910;SDS011;5508;49.150;11.030;2024-02-26T05:45:59;25.20;;;14.33;;
10910;SDS011;5508;49.150;11.030;2024-02-26T05:49:00;23.20;;;14.33;;
10910;SDS011;5508;49.150;11.030;2024-02-26T05:52:00;19.57;;;13.37;;
10910;SDS011;5508;49.150;11.030;2024-02-26T05:55:01;21.87;;;15.00;;
10910;SDS011;5508;49.150;11.030;2024-02-26T05:58:02;22.47;;;15.23;;
10910;SDS011;5508;49.150;11.030;2024-02-26T06:01:03;28.13;;;15.37;;
10910;SDS011;5508;49.150;11.030;2024-02-26T06:04:03;23.67;;;15.13;;
10910;SDS011;5508;49.150;11.030;2024-02-26T06:07:04;22.50;;;14.87;;
10910;SDS011;5508;49.150;11.030;2024-02-26T06:10:05;28.83;;;16.90;;
10910;SDS011;5508;49.150;11.030;2024-02-26T06:13:06;22.57;;;14.37;;
10910;SDS011;5508;49.150;11.030;2024-02-26T06:16:07;22.63;;;15.13;;
10910;SDS011;5508;49.150;11.030;2024-02-26T06:19:08;17.20;;;12.53;;
10910;SDS011;5508;49.150;11.030;2024-02-26T06:22:09;24.37;;;14.30;;
10910;SDS011;5508;49.150;11.030;2024-02-26T06:25:09;26.17;;;14.70;;
10910;SDS011;5508;49.150;11.030;2024-02-26T06:28:10;28.73;;;16.23;;
10910;SDS011;5508;49.150;11.030;2024-02-26T06:31:10;30.97;;;16.93;;
10910;SDS011;5508;49.150;11.030;2024-02-26T06:34:11;24.40;;;18.03;;
10910;SDS011;5508;49.150;11.030;2024-02-26T06:37:12;26.67;;;16.87;;
10910;SDS011;5508;49.150;11.030;2024-02-26T06:40:12;25.90;;;14.30;;
10910;SDS011;5508;49.150;11.030;2024-02-26T06:43:13;30.07;;;15.50;;
10910;SDS011;5508;49.150;11.030;2024-02-26T06:46:14;25.00;;;17.40;;
10910;SDS011;5508;49.150;11.030;2024-02-26T06:49:14;23.13;;;15.57;;
10910;SDS011;5508;49.150;11.030;2024-02-26T06:52:15;21.33;;;14.13;;
10910;SDS011;5508;49.150;11.030;2024-02-26T06:55:15;22.40;;;16.93;;
10910;SDS011;5508;49.150;11.030;2024-02-26T06:58:16;26.40;;;18.67;;
10910;SDS011;5508;49.150;11.030;2024-02-26T07:01:17;35.60;;;21.80;;
10910;SDS011;5508;49.150;11.030;2024-02-26T07:04:18;40.13;;;28.40;;
10910;SDS011;5508;49.150;11.030;2024-02-26T07:07:19;50.53;;;33.07;;
10910;SDS011;5508;49.150;11.030;2024-02-26T07:10:20;44.27;;;29.07;;
10910;SDS011;5508;49.150;11.030;2024-02-26T07:13:21;44.90;;;28.30;;
10910;SDS011;5508;49.150;11.030;2024-02-26T07:16:21;26.23;;;17.57;;
10910;SDS011;5508;49.150;11.030;2024-02-26T07:19:22;27.07;;;17.10;;
10910;SDS011;5508;49.150;11.030;2024-02-26T07:22:23;37.07;;;17.03;;
10910;SDS011;5508;49.150;11.030;2024-02-26T07:25:24;22.03;;;16.27;;
10910;SDS011;5508;49.150;11.030;2024-02-26T07:28:24;26.17;;;16.10;;
10910;SDS011;5508;49.150;11.030;2024-02-26T07:31:25;24.03;;;14.83;;
10910;SDS011;5508;49.150;11.030;2024-02-26T07:34:26;28.53;;;16.63;;
10910;SDS011;5508;49.150;11.030;2024-02-26T07:37:30;25.03;;;15.27;;
10910;SDS011;5508;49.150;11.030;2024-02-26T07:40:30;28.50;;;17.03;;
10910;SDS011;5508;49.150;11.030;2024-02-26T07:43:31;24.43;;;17.23;;
10910;SDS011;5508;49.150;11.030;2024-02-26T07:46:31;28.03;;;17.33;;
10910;SDS011;5508;49.150;11.030;2024-02-26T07:49:32;26.73;;;16.90;;
10910;SDS011;5508;49.150;11.030;2024-02-26T07:52:33;21.63;;;16.00;;
10910;SDS011;5508;49.150;11.030;2024-02-26T07:55:33;26.37;;;19.50;;
10910;SDS011;5508;49.150;11.030;2024-02-26T07:58:34;35.23;;;20.47;;
10910;SDS011;5508;49.150;11.030;2024-02-26T08:01:35;69.50;;;35.43;;
10910;SDS011;5508;49.150;11.030;2024-02-26T08:04:38;67.60;;;31.47;;
10910;SDS011;5508;49.150;11.030;2024-02-26T08:07:39;52.00;;;26.43;;
10910;SDS011;5508;49.150;11.030;2024-02-26T08:10:39;22.97;;;15.40;;
10910;SDS011;5508;49.150;11.030;2024-02-26T08:13:40;23.57;;;14.83;;
10910;SDS011;5508;49.150;11.030;2024-02-26T08:16:41;19.27;;;14.47;;
10910;SDS011;5508;49.150;11.030;2024-02-26T08:19:41;24.80;;;16.20;;
10910;SDS011;5508;49.150;11.030;2024-02-26T08:22:42;14.60;;;11.60;;
10910;SDS011;5508;49.150;11.030;2024-02-26T08:25:42;17.27;;;12.60;;
10910;SDS011;5508;49.150;11.030;2024-02-26T08:28:43;15.37;;;12.33;;
10910;SDS011;5508;49.150;11.030;2024-02-26T08:31:44;14.70;;;11.10;;
10910;SDS011;5508;49.150;11.030;2024-02-26T08:34:45;19.07;;;13.83;;
10910;SDS011;5508;49.150;11.030;2024-02-26T08:37:46;16.33;;;11.47;;
10910;SDS011;5508;49.150;11.030;2024-02-26T08:40:48;18.50;;;11.97;;
10910;SDS011;5508;49.150;11.030;2024-02-26T08:43:48;27.93;;;22.17;;
10910;SDS011;5508;49.150;11.030;2024-02-26T08:46:49;12.07;;;8.67;;
10910;SDS011;5508;49.150;11.030;2024-02-26T08:49:50;10.87;;;8.83;;
10910;SDS011;5508;49.150;11.030;2024-02-26T08:52:51;9.97;;;8.07;;
10910;SDS011;5508;49.150;11.030;2024-02-26T08:55:53;11.90;;;9.27;;
10910;SDS011;5508;49.150;11.030;2024-02-26T08:58:53;15.53;;;11.13;;
10910;SDS011;5508;49.150;11.030;2024-02-26T09:01:56;18.33;;;12.40;;
10910;SDS011;5508;49.150;11.030;2024-02-26T09:04:57;15.53;;;11.20;;
10910;SDS011;5508;49.150;11.030;2024-02-26T09:07:58;17.30;;;11.93;;
10910;SDS011;5508;49.150;11.030;2024-02-26T09:10:58;13.77;;;10.63;;
10910;SDS011;5508;49.150;11.030;2024-02-26T09:13:59;15.60;;;9.43;;
10910;SDS011;5508;49.150;11.030;2024-02-26T09:16:59;11.27;;;8.87;;
10910;SDS011;5508;49.150;11.030;2024-02-26T09:20:01;8.77;;;6.83;;
10910;SDS011;5508;49.150;11.030;2024-02-26T09:23:03;10.10;;;7.83;;
10910;SDS011;5508;49.150;11.030;2024-02-26T09:26:05;10.10;;;6.40;;
10910;SDS011;5508;49.150;11.030;2024-02-26T09:29:06;8.90;;;6.70;;
10910;SDS011;5508;49.150;11.030;2024-02-26T09:32:08;12.10;;;7.60;;
10910;SDS011;5508;49.150;11.030;2024-02-26T09:35:08;9.63;;;6.83;;
10910;SDS011;5508;49.150;11.030;2024-02-26T09:38:09;8.70;;;5.83;;
10910;SDS011;5508;49.150;11.030;2024-02-26T09:41:13;7.10;;;5.13;;
10910;SDS011;5508;49.150;11.030;2024-02-26T09:44:20;5.97;;;4.40;;
10910;SDS011;5508;49.150;11.030;2024-02-26T09:47:21;6.50;;;5.00;;
10910;SDS011;5508;49.150;11.030;2024-02-26T09:50:24;7.40;;;4.90;;
10910;SDS011;5508;49.150;11.030;2024-02-26T09:53:24;6.47;;;4.90;;
10910;SDS011;5508;49.150;11.030;2024-02-26T09:56:25;4.80;;;4.23;;
10910;SDS011;5508;49.150;11.030;2024-02-26T09:59:26;6.70;;;4.47;;
10910;SDS011;5508;49.150;11.030;2024-02-26T10:02:27;8.83;;;5.83;;
10910;SDS011;5508;49.150;11.030;2024-02-26T10:05:28;9.07;;;5.80;;
10910;SDS011;5508;49.150;11.030;2024-02-26T10:08:29;6.90;;;4.53;;
10910;SDS011;5508;49.150;11.030;2024-02-26T10:11:30;9.77;;;5.20;;
10910;SDS011;5508;49.150;11.030;2024-02-26T10:14:32;8.53;;;5.13;;
10910;SDS011;5508;49.150;11.030;2024-02-26T10:17:36;5.40;;;4.63;;
10910;SDS011;5508;49.150;11.030;2024-02-26T10:20:37;6.60;;;4.20;;
10910;SDS011;5508;49.150;11.030;2024-02-26T10:23:38;6.93;;;4.57;;
10910;SDS011;5508;49.150;11.030;2024-02-26T10:26:45;6.63;;;4.53;;
10910;SDS011;5508;49.150;11.030;2024-02-26T10:29:46;4.60;;;3.87;;
10910;SDS011;5508;49.150;11.030;2024-02-26T10:32:47;9.67;;;6.47;;
10910;SDS011;5508;49.150;11.030;2024-02-26T10:35:51;6.23;;;4.93;;
10910;SDS011;5508;49.150;11.030;2024-02-26T10:38:54;5.43;;;4.50;;
10910;SDS011;5508;49.150;11.030;2024-02-26T10:41:55;9.90;;;4.50;;
10910;SDS011;5508;49.150;11.030;2024-02-26T10:44:55;9.07;;;5.30;;
10910;SDS011;5508;49.150;11.030;2024-02-26T10:47:58;7.47;;;4.30;;
10910;SDS011;5508;49.150;11.030;2024-02-26T10:51:00;4.63;;;3.80;;
10910;SDS011;5508;49.150;11.030;2024-02-26T10:54:00;6.33;;;3.77;;
10910;SDS011;5508;49.150;11.030;2024-02-26T10:57:07;5.13;;;3.27;;
10910;SDS011;5508;49.150;11.030;2024-02-26T11:00:10;5.33;;;3.00;;
10910;SDS011;5508;49.150;11.030;2024-02-26T11:03:14;5.40;;;3.30;;
10910;SDS011;5508;49.150;11.030;2024-02-26T11:06:20;4.57;;;3.53;;
10910;SDS011;5508;49.150;11.030;2024-02-26T11:09:22;4.30;;;3.43;;
10910;SDS011;5508;49.150;11.030;2024-02-26T11:12:23;4.20;;;3.07;;
10910;SDS011;5508;49.150;11.030;2024-02-26T11:15:25;3.37;;;2.70;;
10910;SDS011;5508;49.150;11.030;2024-02-26T11:18:26;3.27;;;2.57;;
10910;SDS011;5508;49.150;11.030;2024-02-26T11:21:27;3.00;;;2.60;;
10910;SDS011;5508;49.150;11.030;2024-02-26T11:24:38;3.47;;;2.50;;
10910;SDS011;5508;49.150;11.030;2024-02-26T11:27:45;2.90;;;2.30;;
10910;SDS011;5508;49.150;11.030;2024-02-26T11:30:57;7.53;;;2.43;;
10910;SDS011;5508;49.150;11.030;2024-02-26T11:34:00;3.50;;;2.43;;
10910;SDS011;5508;49.150;11.030;2024-02-26T11:37:11;2.97;;;2.30;;
10910;SDS011;5508;49.150;11.030;2024-02-26T11:40:15;3.57;;;2.53;;
10910;SDS011;5508;49.150;11.030;2024-02-26T11:43:18;14.20;;;2.97;;
10910;SDS011;5508;49.150;11.030;2024-02-26T11:52:28;3.03;;;2.53;;
10910;SDS011;5508;49.150;11.030;2024-02-26T11:55:31;3.70;;;2.10;;
10910;SDS011;5508;49.150;11.030;2024-02-26T11:58:32;4.60;;;1.63;;
10910;SDS011;5508;49.150;11.030;2024-02-26T12:01:39;5.33;;;2.33;;
10910;SDS011;5508;49.150;11.030;2024-02-26T12:04:43;4.00;;;1.97;;
10910;SDS011;5508;49.150;11.030;2024-02-26T12:07:47;2.40;;;1.77;;
10910;SDS011;5508;49.150;11.030;2024-02-26T12:10:49;3.77;;;2.07;;
10910;SDS011;5508;49.150;11.030;2024-02-26T12:13:50;2.20;;;2.00;;
10910;SDS011;5508;49.150;11.030;2024-02-26T12:16:51;3.90;;;2.03;;
10910;SDS011;5508;49.150;11.030;2024-02-26T12:19:53;2.93;;;2.13;;
10910;SDS011;5508;49.150;11.030;2024-02-26T12:22:54;4.23;;;1.80;;
10910;SDS011;5508;49.150;11.030;2024-02-26T12:25:59;2.80;;;2.20;;
10910;SDS011;5508;49.150;11.030;2024-02-26T12:29:00;5.90;;;4.03;;
10910;SDS011;5508;49.150;11.030;2024-02-26T12:32:01;2.70;;;1.80;;
10910;SDS011;5508;49.150;11.030;2024-02-26T12:35:05;3.23;;;1.80;;
10910;SDS011;5508;49.150;11.030;2024-02-26T12:38:06;3.13;;;2.23;;
10910;SDS011;5508;49.150;11.030;2024-02-26T12:41:06;3.33;;;2.30;;
10910;SDS011;5508;49.150;11.030;2024-02-26T12:44:07;2.93;;;1.73;;
10910;SDS011;5508;49.150;11.030;2024-02-26T12:47:08;2.93;;;1.77;;
10910;SDS011;5508;49.150;11.030;2024-02-26T12:50:10;3.50;;;2.20;;
10910;SDS011;5508;49.150;11.030;2024-02-26T12:53:11;2.13;;;1.50;;
10910;SDS011;5508;49.150;11.030;2024-02-26T12:56:12;5.17;;;1.90;;
10910;SDS011;5508;49.150;11.030;2024-02-26T12:59:12;2.10;;;1.70;;
10910;SDS011;5508;49.150;11.030;2024-02-26T13:02:14;2.20;;;1.90;;
10910;SDS011;5508;49.150;11.030;2024-02-26T13:05:14;4.93;;;1.93;;
10910;SDS011;5508;49.150;11.030;2024-02-26T13:08:19;2.50;;;1.80;;
10910;SDS011;5508;49.150;11.030;2024-02-26T13:11:21;2.20;;;1.70;;
10910;SDS011;5508;49.150;11.030;2024-02-26T13:14:21;2.50;;;2.23;;
10910;SDS011;5508;49.150;11.030;2024-02-26T13:17:23;3.10;;;1.80;;
10910;SDS011;5508;49.150;11.030;2024-02-26T13:20:26;4.70;;;2.10;;
10910;SDS011;5508;49.150;11.030;2024-02-26T13:23:28;3.30;;;2.00;;
10910;SDS011;5508;49.150;11.030;2024-02-26T13:26:28;3.67;;;1.80;;
10910;SDS011;5508;49.150;11.030;2024-02-26T13:29:29;2.77;;;1.73;;
10910;SDS011;5508;49.150;11.030;2024-02-26T13:32:31;3.20;;;1.70;;
10910;SDS011;5508;49.150;11.030;2024-02-26T13:35:32;4.23;;;1.70;;
10910;SDS011;5508;49.150;11.030;2024-02-26T13:38:35;6.27;;;2.50;;
10910;SDS011;5508;49.150;11.030;2024-02-26T13:41:35;5.43;;;2.30;;
10910;SDS011;5508;49.150;11.030;2024-02-26T13:44:36;1.97;;;1.50;;
10910;SDS011;5508;49.150;11.030;2024-02-26T13:47:39;2.67;;;1.67;;
10910;SDS011;5508;49.150;11.030;2024-02-26T13:50:41;2.13;;;1.50;;
10910;SDS011;5508;49.150;11.030;2024-02-26T13:53:43;7.73;;;2.10;;
10910;SDS011;5508;49.150;11.030;2024-02-26T13:56:43;1.57;;;1.30;;
10910;SDS011;5508;49.150;11.030;2024-02-26T13:59:44;4.17;;;1.70;;
10910;SDS011;5508;49.150;11.030;2024-02-26T14:02:45;1.87;;;1.40;;
10910;SDS011;5508;49.150;11.030;2024-02-26T14:05:46;3.37;;;2.10;;
10910;SDS011;5508;49.150;11.030;2024-02-26T14:08:46;2.93;;;1.50;;
10910;SDS011;5508;49.150;11.030;2024-02-26T14:11:47;1.87;;;1.40;;
10910;SDS011;5508;49.150;11.030;2024-02-26T14:14:48;2.03;;;1.40;;
10910;SDS011;5508;49.150;11.030;2024-02-26T14:17:49;4.10;;;1.70;;
10910;SDS011;5508;49.150;11.030;2024-02-26T14:20:56;3.67;;;1.80;;
10910;SDS011;5508;49.150;11.030;2024-02-26T14:23:56;4.10;;;1.60;;
10910;SDS011;5508;49.150;11.030;2024-02-26T14:26:57;10.67;;;2.20;;
10910;SDS011;5508;49.150;11.030;2024-02-26T14:29:58;2.27;;;1.70;;
10910;SDS011;5508;49.150;11.030;2024-02-26T14:32:58;3.60;;;1.50;;
10910;SDS011;5508;49.150;11.030;2024-02-26T14:35:59;3.47;;;2.50;;
10910;SDS011;5508;49.150;11.030;2024-02-26T14:38:59;2.63;;;2.30;;
10910;SDS011;5508;49.150;11.030;2024-02-26T14:42:00;3.03;;;2.03;;
10910;SDS011;5508;49.150;11.030;2024-02-26T14:45:01;2.40;;;2.00;;
10910;SDS011;5508;49.150;11.030;2024-02-26T14:48:02;4.07;;;2.43;;
10910;SDS011;5508;49.150;11.030;2024-02-26T14:51:03;6.83;;;2.97;;
10910;SDS011;5508;49.150;11.030;2024-02-26T14:54:06;4.07;;;3.00;;
10910;SDS011;5508;49.150;11.030;2024-02-26T14:57:06;7.23;;;5.90;;
10910;SDS011;5508;49.150;11.030;2024-02-26T15:00:07;6.67;;;4.67;;
10910;SDS011;5508;49.150;11.030;2024-02-26T15:03:09;9.23;;;4.43;;
10910;SDS011;5508;49.150;11.030;2024-02-26T15:06:10;9.93;;;5.40;;
10910;SDS011;5508;49.150;11.030;2024-02-26T15:09:11;5.53;;;3.47;;
10910;SDS011;5508;49.150;11.030;2024-02-26T15:12:11;6.33;;;3.40;;
10910;SDS011;5508;49.150;11.030;2024-02-26T15:15:12;5.87;;;2.90;;
10910;SDS011;5508;49.150;11.030;2024-02-26T15:18:13;6.70;;;4.00;;
10910;SDS011;5508;49.150;11.030;2024-02-26T15:21:15;6.50;;;2.70;;
10910;SDS011;5508;49.150;11.030;2024-02-26T15:24:16;4.47;;;2.70;;
10910;SDS011;5508;49.150;11.030;2024-02-26T15:27:17;4.20;;;3.00;;
10910;SDS011;5508;49.150;11.030;2024-02-26T15:30:18;4.60;;;3.03;;
10910;SDS011;5508;49.150;11.030;2024-02-26T15:33:18;7.03;;;3.73;;
10910;SDS011;5508;49.150;11.030;2024-02-26T15:36:19;4.30;;;2.93;;
10910;SDS011;5508;49.150;11.030;2024-02-26T15:39:19;6.73;;;2.80;;
10910;SDS011;5508;49.150;11.030;2024-02-26T15:42:21;4.03;;;2.90;;
10910;SDS011;5508;49.150;11.030;2024-02-26T15:45:21;6.90;;;3.10;;
10910;SDS011;5508;49.150;11.030;2024-02-26T15:48:24;4.17;;;3.00;;
10910;SDS011;5508;49.150;11.030;2024-02-26T15:51:25;3.27;;;2.47;;
10910;SDS011;5508;49.150;11.030;2024-02-26T15:54:26;2.93;;;2.50;;
10910;SDS011;5508;49.150;11.030;2024-02-26T15:57:27;4.33;;;3.07;;
10910;SDS011;5508;49.150;11.030;2024-02-26T16:00:27;7.80;;;5.27;;
10910;SDS011;5508;49.150;11.030;2024-02-26T16:03:28;11.53;;;6.07;;
10910;SDS011;5508;49.150;11.030;2024-02-26T16:06:29;10.40;;;8.03;;
10910;SDS011;5508;49.150;11.030;2024-02-26T16:09:34;10.03;;;6.00;;
10910;SDS011;5508;49.150;11.030;2024-02-26T16:12:36;9.73;;;6.53;;
10910;SDS011;5508;49.150;11.030;2024-02-26T16:15:44;8.13;;;4.90;;
10910;SDS011;5508;49.150;11.030;2024-02-26T16:18:49;9.60;;;5.70;;
10910;SDS011;5508;49.150;11.030;2024-02-26T16:21:50;11.10;;;6.93;;
10910;SDS011;5508;49.150;11.030;2024-02-26T16:24:51;8.83;;;5.53;;
10910;SDS011;5508;49.150;11.030;2024-02-26T16:27:51;8.87;;;3.97;;
10910;SDS011;5508;49.150;11.030;2024-02-26T16:30:52;4.17;;;3.77;;
10910;SDS011;5508;49.150;11.030;2024-02-26T16:33:53;5.40;;;3.53;;
10910;SDS011;5508;49.150;11.030;2024-02-26T16:36:54;5.03;;;4.20;;
10910;SDS011;5508;49.150;11.030;2024-02-26T16:39:57;5.30;;;4.30;;
10910;SDS011;5508;49.150;11.030;2024-02-26T16:42:59;4.73;;;4.20;;
10910;SDS011;5508;49.150;11.030;2024-02-26T16:45:59;6.73;;;4.50;;
10910;SDS011;5508;49.150;11.030;2024-02-26T16:49:01;7.67;;;4.90;;
10910;SDS011;5508;49.150;11.030;2024-02-26T16:52:02;11.10;;;9.27;;
10910;SDS011;5508;49.150;11.030;2024-02-26T16:55:03;9.97;;;6.93;;
10910;SDS011;5508;49.150;11.030;2024-02-26T16:58:04;10.87;;;8.50;;
10910;SDS011;5508;49.150;11.030;2024-02-26T17:01:05;13.87;;;11.30;;
10910;SDS011;5508;49.150;11.030;2024-02-26T17:04:06;9.93;;;8.50;;
10910;SDS011;5508;49.150;11.030;2024-02-26T17:07:07;12.33;;;8.63;;
10910;SDS011;5508;49.150;11.030;2024-02-26T17:10:08;11.17;;;9.63;;
10910;SDS011;5508;49.150;11.030;2024-02-26T17:13:09;12.23;;;7.30;;
10910;SDS011;5508;49.150;11.030;2024-02-26T17:16:10;11.57;;;7.83;;
10910;SDS011;5508;49.150;11.030;2024-02-26T17:19:10;14.97;;;11.43;;
10910;SDS011;5508;49.150;11.030;2024-02-26T17:22:11;18.90;;;10.83;;
10910;SDS011;5508;49.150;11.030;2024-02-26T17:25:12;8.67;;;7.73;;
10910;SDS011;5508;49.150;11.030;2024-02-26T17:28:16;16.83;;;11.23;;
10910;SDS011;5508;49.150;11.030;2024-02-26T17:31:18;15.00;;;10.47;;
10910;SDS011;5508;49.150;11.030;2024-02-26T17:34:19;12.90;;;8.80;;
10910;SDS011;5508;49.150;11.030;2024-02-26T17:37:20;11.67;;;10.13;;
10910;SDS011;5508;49.150;11.030;2024-02-26T17:40:21;12.57;;;8.53;;
10910;SDS011;5508;49.150;11.030;2024-02-26T17:43:22;10.30;;;9.17;;
10910;SDS011;5508;49.150;11.030;2024-02-26T17:46:23;12.50;;;10.83;;
10910;SDS011;5508;49.150;11.030;2024-02-26T17:49:23;14.73;;;10.20;;
10910;SDS011;5508;49.150;11.030;2024-02-26T17:52:27;9.57;;;7.00;;
10910;SDS011;5508;49.150;11.030;2024-02-26T17:55:27;8.30;;;6.60;;
10910;SDS011;5508;49.150;11.030;2024-02-26T17:58:28;7.47;;;5.63;;
10910;SDS011;5508;49.150;11.030;2024-02-26T18:01:30;8.87;;;6.30;;
10910;SDS011;5508;49.150;11.030;2024-02-26T18:04:32;9.27;;;7.77;;
10910;SDS011;5508;49.150;11.030;2024-02-26T18:07:32;9.40;;;8.40;;